Maple Grove, MN (55311)

11:02 AM CST on February 14, 2016 (GMT -0600)
North Rice Lake | | Change Station
CLOSE
Current Station
Personal Weather Station
Location: Maple Grove, MN
Elevation: 896 ft
Nearby Weather Stations

Elev 896 ft 45.12 °N, 93.48 °W | Updated 4 minutes ago

Snow
Snow
17.1 °F
Feels Like 8 °F
N
6.8
Wind Variable Wind from SSW

Today
High -- | Low -- °F
--% Chance of Precip.
Yesterday
High -- | Low -- °F
Precip. -- in
Pressure 30.06 in
Visibility 2.5 miles
Clouds Mostly Cloudy 2600 ft
Overcast 3500 ft
Windchill 8 °F
Dew Point 17 °F
Humidity 98%
Rainfall 0.00 in
Snow Depth Not available.
7:17 AM 5:39 PM
Waxing Crescent, 43% visible
METAR KMIC 141653Z 15010KT 2 1/2SM -SN BKN026 OVC035 M09/M13 A3001 RMK AO2 SLP180 P0000 T10891128
Pressure 30.06 in
Visibility 2.5 miles
Clouds Mostly Cloudy 2600 ft
Overcast 3500 ft
Windchill 8 °F
Dew Point 17 °F
Humidity 98%
Rainfall 0.00 in
Snow Depth Not available.
7:17 AM 5:39 PM
Waxing Crescent, 43% visible
METAR KMIC 141653Z 15010KT 2 1/2SM -SN BKN026 OVC035 M09/M13 A3001 RMK AO2 SLP180 P0000 T10891128

10-Day Weather Forecast

Almanac

Astronomy

Feb. 14, 2016 Rise Set
Actual Time
Civil Twilight
Nautical Twilight
Astronomical Twilight
Moon
Length of Visible Light
Length of Day
Tomorrow will be .
, % of the Moon is Illuminated

Today's Extremes

State Highs State Lows

Community

WunderPhotos

Upload Photos

1,892,849 photos uploaded!

WunderBlog® & News

Nearby

Air Quality

  Air Quality AQ Index Pollutant
Not available.

Snow Depth

Station Depth Elevation

Earthquake Activity

City Distance Mag. Time & Date
Minimum magnitude displayed is 2.5.

Coastal Water Temperatures

Place Temperature

Stations

Nearby Weather Stations

Station Location Temp. Windchill Dew Point Humidity Wind Precip. Elev Updated Type
                   

Watches & Warnings

There are currently no watches in effect.